Time;durP1;ratioP1;P1;durP2;ratioP2;P2;SDS_P1;SDS_P2;PMS_P1;PMS_P2;Temp;Humidity;BMP_temperature;BMP_pressure;BME280_temperature;BME280_humidity;BME280_pressure;Samples;Min_cycle;Max_cycle;Signal;HPM_P1;HPM_P2
2022/07/01 00:00:16;;;;;;;109.35;49.97;;;;;;;12.18;100.00;101380.84;5094767;28;20072;-54
2022/07/01 00:02:41;;;;;;;104.28;48.60;;;;;;;12.15;100.00;101400.56;5095877;28;20028;-54
2022/07/01 00:05:07;;;;;;;104.82;49.63;;;;;;;12.11;100.00;101412.50;5095472;28;20017;-53
2022/07/01 00:07:32;;;;;;;105.85;46.90;;;;;;;12.12;100.00;101416.84;5095062;28;20105;-51
2022/07/01 00:09:58;;;;;;;87.03;42.40;;;;;;;12.07;100.00;101405.47;5095803;28;20020;-52
2022/07/01 00:12:23;;;;;;;90.10;42.60;;;;;;;12.02;100.00;101404.44;5095379;28;20032;-52
2022/07/01 00:14:48;;;;;;;87.70;41.17;;;;;;;12.00;100.00;101398.34;5094897;28;20039;-55
2022/07/01 00:17:14;;;;;;;85.88;41.72;;;;;;;11.98;100.00;101393.13;5095442;28;20106;-55
2022/07/01 00:19:39;;;;;;;85.50;41.20;;;;;;;11.94;100.00;101398.09;5095441;28;20048;-55
2022/07/01 00:22:04;;;;;;;86.63;40.80;;;;;;;11.89;100.00;101394.50;5094574;28;20058;-54
2022/07/01 00:24:30;;;;;;;90.13;41.42;;;;;;;11.90;100.00;101391.09;5095447;28;20426;-54
2022/07/01 00:26:55;;;;;;;85.00;40.70;;;;;;;11.86;100.00;101396.16;5095519;28;20048;-54
2022/07/01 00:29:21;;;;;;;89.40;41.55;;;;;;;11.85;100.00;101391.81;5094277;28;20016;-54
2022/07/01 00:31:46;;;;;;;75.15;37.42;;;;;;;11.78;100.00;101384.69;5095252;28;20032;-53
2022/07/01 00:34:12;;;;;;;83.35;38.17;;;;;;;11.77;100.00;101393.25;5095071;28;20017;-54
2022/07/01 00:36:37;;;;;;;81.32;38.13;;;;;;;11.79;100.00;101393.31;5094260;28;20024;-55
2022/07/01 00:39:02;;;;;;;87.40;40.00;;;;;;;11.79;100.00;101378.69;5095009;28;20021;-52
2022/07/01 00:41:28;;;;;;;95.20;40.22;;;;;;;11.77;100.00;101377.75;5095201;28;20024;-52
2022/07/01 00:43:53;;;;;;;89.78;40.55;;;;;;;11.77;100.00;101385.50;5094333;28;20025;-49
2022/07/01 00:46:19;;;;;;;92.32;40.45;;;;;;;11.76;100.00;101383.78;5094735;28;20020;-51
2022/07/01 00:48:45;;;;;;;101.10;42.35;;;;;;;11.80;100.00;101379.56;5094184;28;20049;-52
2022/07/01 00:51:10;;;;;;;106.32;44.17;;;;;;;11.83;100.00;101374.53;5094865;28;20023;-50
2022/07/01 00:53:36;;;;;;;94.97;42.38;;;;;;;11.83;100.00;101377.09;5095002;28;20119;-53
2022/07/01 00:56:01;;;;;;;104.63;43.35;;;;;;;11.84;100.00;101373.69;5094016;28;20099;-48
2022/07/01 00:58:28;;;;;;;100.35;43.88;;;;;;;11.88;100.00;101388.47;5094669;28;20395;-49
2022/07/01 01:00:55;;;;;;;97.70;43.97;;;;;;;11.88;100.00;101388.47;5094615;28;20055;-52
2022/07/01 01:03:20;;;;;;;110.63;44.00;;;;;;;11.91;100.00;101385.09;5093455;28;20317;-52
2022/07/01 01:05:46;;;;;;;106.68;45.47;;;;;;;11.90;100.00;101380.75;5094879;28;20063;-51
2022/07/01 01:08:11;;;;;;;102.80;43.28;;;;;;;11.93;100.00;101381.75;5094630;28;20139;-51
2022/07/01 01:10:37;;;;;;;100.20;44.67;;;;;;;11.95;100.00;101399.88;5093738;28;20016;-49
2022/07/01 01:13:03;;;;;;;118.53;47.67;;;;;;;11.97;100.00;101409.44;5094212;28;20050;-51
2022/07/01 01:15:29;;;;;;;112.20;46.67;;;;;;;12.00;100.00;101408.69;5094377;28;20027;-49
2022/07/01 01:17:55;;;;;;;102.55;44.67;;;;;;;11.99;100.00;101412.06;5093571;28;20074;-51
2022/07/01 01:20:20;;;;;;;114.78;48.08;;;;;;;12.02;100.00;101412.19;5094414;28;20020;-52
2022/07/01 01:22:49;;;;;;;135.38;50.22;;;;;;;12.06;100.00;101423.47;5094410;28;20028;-50
2022/07/01 01:25:15;;;;;;;110.70;45.65;;;;;;;12.03;100.00;101424.25;5093332;28;20069;-49
2022/07/01 01:27:41;;;;;;;113.07;47.05;;;;;;;12.03;100.00;101429.44;5094046;28;20021;-51
2022/07/01 01:30:08;;;;;;;108.03;45.92;;;;;;;12.04;100.00;101436.34;5094046;28;20035;-49
2022/07/01 01:32:34;;;;;;;136.20;48.97;;;;;;;12.11;100.00;101437.44;5093017;28;20035;-50
2022/07/01 01:35:00;;;;;;;112.78;45.55;;;;;;;12.13;100.00;101439.25;5094057;28;20024;-49
2022/07/01 01:37:27;;;;;;;105.70;44.28;;;;;;;12.10;100.00;101433.13;5094095;28;20053;-49
2022/07/01 01:39:52;;;;;;;110.20;46.70;;;;;;;12.13;100.00;101438.38;5093277;28;20020;-50
2022/07/01 01:42:17;;;;;;;112.22;47.35;;;;;;;12.19;100.00;101425.66;5093676;28;20031;-50
2022/07/01 01:44:43;;;;;;;114.82;46.35;;;;;;;12.14;100.00;101422.06;5093925;28;20110;-51
2022/07/01 01:47:08;;;;;;;105.07;44.95;;;;;;;12.15;100.00;101432.44;5092824;28;20031;-50
2022/07/01 01:49:33;;;;;;;101.15;44.25;;;;;;;12.15;100.00;101435.00;5093587;28;20035;-52
2022/07/01 01:51:59;;;;;;;97.07;44.00;;;;;;;12.11;100.00;101433.16;5093076;28;20027;-54
2022/07/01 01:54:25;;;;;;;102.82;45.88;;;;;;;12.16;100.00;101435.88;5093774;28;20031;-52
2022/07/01 01:56:50;;;;;;;111.18;45.92;;;;;;;12.19;100.00;101426.53;5093660;28;20051;-50
2022/07/01 01:59:16;;;;;;;103.82;45.60;;;;;;;12.18;100.00;101422.19;5092607;28;20524;-54
2022/07/01 02:01:41;;;;;;;102.20;46.35;;;;;;;12.19;100.00;101431.69;5093521;28;20020;-55
2022/07/01 02:04:06;;;;;;;102.20;45.17;;;;;;;12.19;100.00;101429.09;5093143;28;20379;-55
2022/07/01 02:06:32;;;;;;;107.15;46.35;;;;;;;12.14;100.00;101427.22;5092776;28;20024;-54
2022/07/01 02:08:57;;;;;;;105.45;45.40;;;;;;;12.15;100.00;101435.00;5093525;28;20020;-55
2022/07/01 02:11:22;;;;;;;104.45;44.92;;;;;;;12.13;100.00;101434.06;5093380;28;20038;-54
2022/07/01 02:13:47;;;;;;;112.68;47.35;;;;;;;12.15;100.00;101445.34;5092670;28;20024;-53
2022/07/01 02:16:13;;;;;;;122.18;48.47;;;;;;;12.16;100.00;101456.56;5093192;28;20032;-53
2022/07/01 02:18:38;;;;;;;110.00;47.25;;;;;;;12.17;100.00;101456.63;5093751;28;20363;-54
2022/07/01 02:21:03;;;;;;;114.97;48.17;;;;;;;12.15;100.00;101460.00;5092513;28;20044;-52
2022/07/01 02:23:29;;;;;;;120.25;51.30;;;;;;;12.15;100.00;101453.09;5093309;28;20446;-53
2022/07/01 02:25:55;;;;;;;113.35;47.60;;;;;;;12.17;100.00;101464.38;5093202;28;20062;-54
2022/07/01 02:28:20;;;;;;;117.28;49.65;;;;;;;12.17;100.00;101473.81;5092159;28;20057;-53
2022/07/01 02:30:45;;;;;;;125.70;52.65;;;;;;;12.15;100.00;101480.66;5093161;28;20482;-53
2022/07/01 02:33:11;;;;;;;122.35;51.85;;;;;;;12.16;100.00;101483.28;5092701;28;20039;-53
2022/07/01 02:35:38;;;;;;;116.80;50.83;;;;;;;12.17;100.00;101460.91;5092452;28;20110;-52
2022/07/01 02:38:04;;;;;;;117.57;52.43;;;;;;;12.16;100.00;101444.53;5093046;28;20034;-51
2022/07/01 02:40:30;;;;;;;120.40;52.50;;;;;;;12.15;100.00;101428.97;5093109;28;20024;-50
2022/07/01 02:42:55;;;;;;;118.55;52.83;;;;;;;12.13;100.00;101435.78;5092328;28;20061;-49
2022/07/01 02:45:21;;;;;;;118.43;52.42;;;;;;;12.15;100.00;101447.06;5092663;28;20456;-51
2022/07/01 02:47:46;;;;;;;130.93;55.22;;;;;;;12.17;100.00;101442.81;5092848;28;20027;-52
2022/07/01 02:50:13;;;;;;;130.10;55.38;;;;;;;12.17;100.00;101445.38;5091910;28;20028;-52
2022/07/01 02:52:42;;;;;;;123.83;53.77;;;;;;;12.17;100.00;101448.88;5092890;28;20040;-50
2022/07/01 02:55:12;;;;;;;120.07;51.58;;;;;;;12.16;100.00;101447.13;5092631;28;20486;-50
2022/07/01 02:57:38;;;;;;;125.13;52.60;;;;;;;12.16;100.00;101446.22;5092327;28;20395;-48
2022/07/01 03:00:08;;;;;;;121.88;53.60;;;;;;;12.17;100.00;101459.22;5092412;28;20044;-49
2022/07/01 03:02:34;;;;;;;122.97;50.17;;;;;;;12.17;100.00;101468.66;5092080;28;20032;-52
2022/07/01 03:05:00;;;;;;;117.43;51.75;;;;;;;12.14;100.00;101453.91;5092769;28;20027;-50
2022/07/01 03:07:25;;;;;;;128.73;53.05;;;;;;;12.14;100.00;101451.34;5092718;28;20024;-49
2022/07/01 03:09:50;;;;;;;132.98;55.58;;;;;;;12.16;100.00;101452.28;5091939;28;20030;-49
2022/07/01 03:12:25;;;;;;;122.55;54.45;;;;;;;12.16;100.00;101466.88;5092576;28;20395;-52
2022/07/01 03:14:53;;;;;;;140.57;55.65;;;;;;;12.19;100.00;101472.19;5092675;28;20483;-50
2022/07/01 03:17:18;;;;;;;137.65;56.22;;;;;;;12.17;100.00;101468.66;5095206;28;20036;-54
2022/07/01 03:19:44;;;;;;;130.32;57.53;;;;;;;12.15;100.00;101489.28;5096756;28;20020;-49
2022/07/01 03:22:10;;;;;;;134.50;57.42;;;;;;;12.13;100.00;101483.16;5096480;28;20016;-49
2022/07/01 03:24:35;;;;;;;134.63;57.58;;;;;;;12.12;100.00;101467.63;5095731;28;20024;-52
2022/07/01 03:27:01;;;;;;;152.60;63.47;;;;;;;12.11;100.00;101459.00;5096309;28;20030;-52
2022/07/01 03:29:26;;;;;;;142.10;61.80;;;;;;;12.15;100.00;101466.03;5096241;28;20020;-52
2022/07/01 03:31:52;;;;;;;155.82;63.55;;;;;;;12.15;100.00;101470.31;5095603;28;20067;-52
2022/07/01 03:34:17;;;;;;;158.05;62.70;;;;;;;12.14;100.00;101466.84;5096136;28;20484;-50
2022/07/01 03:36:42;;;;;;;158.50;61.75;;;;;;;12.12;100.00;101481.44;5096438;28;20024;-52
2022/07/01 03:39:08;;;;;;;167.77;66.00;;;;;;;12.14;100.00;101490.09;5095411;28;20410;-49
2022/07/01 03:41:33;;;;;;;162.13;62.58;;;;;;;12.15;100.00;101497.03;5096163;28;20110;-52
2022/07/01 03:43:58;;;;;;;162.18;63.53;;;;;;;12.16;100.00;101498.78;5095969;28;20020;-53
2022/07/01 03:46:23;;;;;;;163.00;66.72;;;;;;;12.25;100.00;101500.81;5095418;28;20028;-52
2022/07/01 03:48:49;;;;;;;151.25;62.17;;;;;;;12.19;100.00;101504.06;5096253;28;20024;-49
2022/07/01 03:51:14;;;;;;;163.32;63.72;;;;;;;12.23;100.00;101514.50;5095871;28;20032;-52
2022/07/01 03:56:23;;;;;;;140.95;60.38;;;;;;;12.23;100.00;101524.84;5096296;28;20054;-52
2022/07/01 03:58:48;;;;;;;155.07;62.15;;;;;;;12.21;100.00;101521.31;5095146;28;20626;-52
2022/07/01 04:01:13;;;;;;;152.55;62.25;;;;;;;12.18;100.00;101528.13;5095927;28;20038;-52
2022/07/01 04:03:39;;;;;;;153.48;59.33;;;;;;;12.19;100.00;101529.91;5096176;28;20024;-49
2022/07/01 04:06:05;;;;;;;148.27;59.63;;;;;;;12.18;100.00;101527.25;5094820;28;20375;-51
2022/07/01 04:08:30;;;;;;;149.02;61.75;;;;;;;12.14;100.00;101531.44;5095685;28;20459;-50
2022/07/01 04:10:56;;;;;;;151.77;61.10;;;;;;;12.10;100.00;101524.41;5095607;28;20020;-50
2022/07/01 04:13:22;;;;;;;147.07;60.15;;;;;;;12.07;100.00;101521.75;5094680;28;20055;-52
2022/07/01 04:15:47;;;;;;;142.77;61.03;;;;;;;12.12;100.00;101527.94;5095799;28;20059;-52
2022/07/01 04:18:12;;;;;;;149.48;60.60;;;;;;;12.10;100.00;101524.41;5095526;28;20080;-52
2022/07/01 04:20:38;;;;;;;147.02;62.15;;;;;;;12.12;100.00;101527.94;5094652;28;20378;-52
2022/07/01 04:23:03;;;;;;;144.80;59.28;;;;;;;12.06;100.00;101532.91;5095261;28;20036;-50
2022/07/01 04:25:29;;;;;;;147.15;62.42;;;;;;;12.06;100.00;101535.47;5095267;28;20054;-52
2022/07/01 04:27:56;;;;;;;145.80;62.58;;;;;;;12.13;100.00;101539.16;5094452;28;20032;-52
2022/07/01 04:30:21;;;;;;;144.52;60.35;;;;;;;12.06;100.00;101522.56;5095186;28;20016;-52
2022/07/01 04:32:46;;;;;;;143.38;60.95;;;;;;;12.03;100.00;101527.59;5095385;28;20036;-50
2022/07/01 04:35:14;;;;;;;145.65;62.65;;;;;;;11.98;100.00;101529.16;5094369;28;20392;-52
2022/07/01 04:37:39;;;;;;;162.40;66.90;;;;;;;11.97;100.00;101527.41;5095728;28;20089;-49
2022/07/01 04:40:05;;;;;;;162.13;64.43;;;;;;;11.94;100.00;101530.75;5094940;28;20055;-52
2022/07/01 04:42:31;;;;;;;154.27;67.10;;;;;;;11.93;100.00;101538.41;5094453;28;20028;-52
2022/07/01 04:44:56;;;;;;;158.05;67.07;;;;;;;11.92;100.00;101547.88;5095009;28;20028;-52
2022/07/01 04:47:23;;;;;;;164.65;70.05;;;;;;;11.94;100.00;101554.00;5094862;28;20024;-52
2022/07/01 04:49:48;;;;;;;156.17;65.47;;;;;;;11.94;100.00;101560.84;5094180;28;20028;-54
2022/07/01 04:52:13;;;;;;;152.48;61.75;;;;;;;11.98;100.00;101554.97;5094791;28;20355;-53
2022/07/01 04:54:39;;;;;;;140.95;58.58;;;;;;;11.97;100.00;101548.09;5094739;28;20028;-52
2022/07/01 04:57:04;;;;;;;146.45;61.90;;;;;;;11.97;100.00;101543.78;5093777;28;20047;-54
2022/07/01 04:59:29;;;;;;;158.13;63.03;;;;;;;12.01;100.00;101544.78;5094423;28;20052;-55
2022/07/01 05:01:55;;;;;;;154.88;61.80;;;;;;;11.97;100.00;101543.78;5094039;28;20024;-54
2022/07/01 05:04:20;;;;;;;135.80;56.80;;;;;;;11.95;100.00;101534.19;5094495;28;20027;-55
2022/07/01 05:06:46;;;;;;;110.63;50.35;;;;;;;11.91;100.00;101533.19;5094725;28;20028;-54
2022/07/01 05:09:12;;;;;;;126.40;52.78;;;;;;;11.93;100.00;101541.88;5093612;28;20062;-53
2022/07/01 05:11:38;;;;;;;124.22;51.17;;;;;;;11.97;100.00;101545.50;5094314;28;20088;-54
2022/07/01 05:14:04;;;;;;;116.53;50.72;;;;;;;11.98;100.00;101549.81;5094507;28;20016;-55
2022/07/01 05:16:29;;;;;;;107.72;47.08;;;;;;;11.99;100.00;101549.91;5093508;28;20020;-54
2022/07/01 05:21:58;;;;;;;100.47;44.25;;;;;;;12.08;100.00;101551.91;5094462;28;20120;-54
2022/07/01 05:24:27;;;;;;;90.03;42.53;;;;;;;12.14;100.00;101551.25;5093673;28;20028;-54
2022/07/01 05:26:53;;;;;;;94.65;42.42;;;;;;;12.17;100.00;101546.16;5094392;28;20505;-55
2022/07/01 05:29:18;;;;;;;91.60;40.95;;;;;;;12.22;100.00;101546.34;5093792;28;20106;-55
2022/07/01 05:31:44;;;;;;;86.00;39.28;;;;;;;12.24;100.00;101544.66;5093340;28;20066;-53
2022/07/01 05:34:09;;;;;;;82.97;40.13;;;;;;;12.25;100.00;101547.34;5093859;28;20024;-54
2022/07/01 05:36:34;;;;;;;78.90;37.55;;;;;;;12.24;100.00;101542.09;5093882;28;20028;-53
2022/07/01 05:39:00;;;;;;;81.80;39.08;;;;;;;12.31;100.00;101549.22;5092225;28;20024;-55
2022/07/01 05:41:26;;;;;;;79.82;39.13;;;;;;;12.31;100.00;101541.47;5094014;28;20028;-54
2022/07/01 05:43:51;;;;;;;80.82;38.25;;;;;;;12.31;100.00;101529.41;5093818;28;20059;-54
2022/07/01 05:46:16;;;;;;;82.65;38.58;;;;;;;12.26;100.00;101536.13;5092903;28;20954;-54
2022/07/01 05:48:41;;;;;;;78.03;39.40;;;;;;;12.23;100.00;101538.63;5093779;28;20020;-54
2022/07/01 05:51:07;;;;;;;84.88;40.55;;;;;;;12.19;100.00;101540.22;5092569;28;20422;-54
2022/07/01 05:53:32;;;;;;;84.28;40.97;;;;;;;12.22;100.00;101548.94;5093795;28;20452;-53
2022/07/01 05:55:57;;;;;;;92.45;41.08;;;;;;;12.17;100.00;101544.50;5093795;28;20036;-54
2022/07/01 05:58:22;;;;;;;82.03;40.95;;;;;;;12.17;100.00;101556.50;5092938;28;20074;-54
2022/07/01 06:00:48;;;;;;;84.13;42.33;;;;;;;12.18;100.00;101553.97;5093438;28;20142;-54
2022/07/01 06:03:14;;;;;;;100.93;44.53;;;;;;;12.30;100.00;101548.38;5093372;28;20050;-53
2022/07/01 06:05:41;;;;;;;99.68;42.35;;;;;;;12.48;100.00;101550.66;5092534;28;20027;-55
2022/07/01 06:08:07;;;;;;;89.15;43.90;;;;;;;12.65;100.00;101547.75;5093606;28;20024;-53
2022/07/01 06:10:33;;;;;;;83.63;40.58;;;;;;;12.67;100.00;101548.69;5093459;28;20361;-54
2022/07/01 06:12:58;;;;;;;72.68;38.55;;;;;;;12.67;100.00;101544.38;5092354;28;20452;-52
2022/07/01 06:15:24;;;;;;;82.97;39.35;;;;;;;12.67;100.00;101546.09;5093185;28;20111;-52
2022/07/01 06:17:51;;;;;;;74.45;38.05;;;;;;;12.63;100.00;101552.00;5093285;28;20464;-52
2022/07/01 06:20:17;;;;;;;68.78;35.20;;;;;;;12.64;100.00;101551.16;5092181;28;20016;-52
2022/07/01 06:22:42;;;;;;;78.45;37.80;;;;;;;12.72;100.00;101544.53;5093377;28;20407;-51
2022/07/01 06:25:07;;;;;;;72.43;36.92;;;;;;;12.73;100.00;101551.47;5092950;28;20047;-52
2022/07/01 06:27:41;;;;;;;69.80;35.35;;;;;;;12.72;100.00;101552.31;5092409;28;20368;-52
2022/07/01 06:30:06;;;;;;;65.72;34.83;;;;;;;12.70;100.00;101541.03;5093086;28;20020;-52
2022/07/01 06:32:32;;;;;;;75.28;34.60;;;;;;;12.68;100.00;101537.53;5092688;28;20472;-51
2022/07/01 06:34:57;;;;;;;67.43;35.42;;;;;;;12.70;100.00;101543.59;5092297;28;20024;-52
2022/07/01 06:37:22;;;;;;;69.65;37.20;;;;;;;12.77;100.00;101535.22;5093058;28;20028;-50
2022/07/01 06:39:47;;;;;;;72.18;36.08;;;;;;;12.81;100.00;101537.06;5093192;28;20107;-52
2022/07/01 06:42:13;;;;;;;75.88;36.90;;;;;;;12.85;100.00;101535.47;5092079;28;20024;-51
2022/07/01 06:44:38;;;;;;;84.18;37.83;;;;;;;12.95;100.00;101537.50;5092900;28;20024;-51
2022/07/01 06:47:03;;;;;;;71.60;36.30;;;;;;;13.00;100.00;101540.22;5092711;28;20119;-51
2022/07/01 06:49:29;;;;;;;71.53;37.05;;;;;;;13.11;100.00;101538.84;5091847;28;20035;-52
2022/07/01 06:51:54;;;;;;;66.88;35.63;;;;;;;13.24;100.00;101523.69;5093013;28;20028;-52
2022/07/01 06:54:19;;;;;;;63.25;34.15;;;;;;;13.27;100.00;101539.31;5092527;28;20028;-52
2022/07/01 06:56:45;;;;;;;67.88;34.80;;;;;;;13.37;100.00;101530.13;5092647;28;20024;-51
2022/07/01 06:59:10;;;;;;;69.10;34.28;;;;;;;13.44;100.00;101545.91;5092586;28;20142;-52
2022/07/01 07:01:35;;;;;;;63.38;33.28;;;;;;;13.48;99.35;101547.72;5091836;28;20028;-50
2022/07/01 07:04:01;;;;;;;59.78;30.92;;;;;;;13.59;98.86;101542.84;5092547;28;20024;-52
2022/07/01 07:06:26;;;;;;;51.85;28.95;;;;;;;13.67;98.62;101540.47;5092812;28;20066;-51
2022/07/01 07:08:52;;;;;;;58.13;30.33;;;;;;;13.80;98.83;101552.94;5092031;28;20020;-49
2022/07/01 07:11:19;;;;;;;59.20;28.75;;;;;;;13.86;96.65;101566.91;5092245;28;20059;-52
2022/07/01 07:13:45;;;;;;;55.22;27.35;;;;;;;13.95;95.87;101574.94;5093098;28;20415;-50
2022/07/01 07:16:10;;;;;;;53.90;25.20;;;;;;;14.04;95.42;101575.19;5091643;28;20528;-52
2022/07/01 07:18:35;;;;;;;55.25;27.13;;;;;;;14.20;95.60;101583.38;5092516;28;20024;-54
2022/07/01 07:21:02;;;;;;;41.65;22.42;;;;;;;14.12;90.21;101586.63;5092589;28;20053;-54
2022/07/01 07:23:27;;;;;;;48.15;22.40;;;;;;;14.07;92.07;101583.06;5091796;28;20115;-55
2022/07/01 07:25:52;;;;;;;44.35;21.08;;;;;;;13.98;91.19;101567.22;5092599;28;20142;-55
2022/07/01 07:28:18;;;;;;;42.78;20.63;;;;;;;13.96;91.18;101571.50;5092350;28;20020;-52
2022/07/01 07:30:43;;;;;;;41.22;19.52;;;;;;;14.06;90.38;101581.28;5091729;28;20024;-55
2022/07/01 07:33:08;;;;;;;35.70;19.17;;;;;;;14.14;90.61;101577.19;5092187;28;20028;-51
2022/07/01 07:35:34;;;;;;;44.53;19.58;;;;;;;14.24;89.45;101578.31;5092382;28;20012;-54
2022/07/01 07:37:59;;;;;;;38.50;19.30;;;;;;;14.37;87.90;101587.28;5091762;28;20031;-55
2022/07/01 07:40:25;;;;;;;36.92;18.42;;;;;;;14.49;90.87;101590.19;5092339;28;20061;-55
2022/07/01 07:42:50;;;;;;;36.80;15.95;;;;;;;14.48;87.50;101601.38;5092530;28;20021;-55
2022/07/01 07:45:16;;;;;;;28.55;15.10;;;;;;;14.56;86.59;101595.53;5091444;28;20020;-55
2022/07/01 07:47:43;;;;;;;33.33;13.80;;;;;;;14.52;83.61;101606.66;5092352;28;20039;-55
2022/07/01 07:50:10;;;;;;;25.45;11.40;;;;;;;14.47;81.98;101607.44;5092430;28;20025;-55
2022/07/01 07:52:36;;;;;;;33.60;12.70;;;;;;;14.52;84.55;101598.88;5091459;28;20107;-55
2022/07/01 07:55:02;;;;;;;25.58;11.25;;;;;;;14.52;84.22;101598.88;5092225;28;20099;-54
2022/07/01 07:57:27;;;;;;;34.90;12.30;;;;;;;14.52;85.13;101601.47;5092257;28;20036;-55
2022/07/01 07:59:52;;;;;;;28.83;11.55;;;;;;;14.66;85.57;101613.13;5091311;28;20106;-54
2022/07/01 08:02:18;;;;;;;23.95;11.38;;;;;;;14.75;84.91;101613.34;5093495;28;20069;-55
2022/07/01 08:04:43;;;;;;;27.52;11.45;;;;;;;14.88;82.20;101613.66;5095149;28;20042;-55
2022/07/01 08:07:08;;;;;;;26.98;11.40;;;;;;;15.03;82.16;101608.81;5095928;28;20032;-48
2022/07/01 08:09:34;;;;;;;29.70;10.05;;;;;;;15.19;83.72;101615.22;5095817;28;20024;-48
2022/07/01 08:12:03;;;;;;;20.75;10.30;;;;;;;15.33;80.98;101622.47;5094665;28;20054;-48
2022/07/01 08:14:28;;;;;;;18.17;7.97;;;;;;;15.44;81.20;101621.88;5095472;28;20390;-47
2022/07/01 08:16:54;;;;;;;23.98;7.22;;;;;;;15.51;77.46;101616.81;5095680;28;20031;-46
2022/07/01 08:19:19;;;;;;;19.77;6.70;;;;;;;15.58;75.26;101619.56;5094446;28;20028;-46
2022/07/01 08:21:45;;;;;;;13.70;6.53;;;;;;;15.70;75.10;101628.44;5095709;28;20112;-47
2022/07/01 08:24:10;;;;;;;15.18;6.40;;;;;;;15.85;74.75;101625.34;5095397;28;20020;-47
2022/07/01 08:26:35;;;;;;;15.45;5.25;;;;;;;15.95;72.56;101627.28;5094462;28;20503;-46
2022/07/01 08:29:01;;;;;;;13.20;4.80;;;;;;;16.06;71.30;101643.97;5095259;28;20063;-48
2022/07/01 08:31:26;;;;;;;16.88;5.68;;;;;;;16.20;73.77;101640.75;5095078;28;20020;-46
2022/07/01 08:33:51;;;;;;;12.73;4.68;;;;;;;16.28;71.01;101644.34;5094618;28;20495;-46
2022/07/01 08:36:17;;;;;;;9.27;4.60;;;;;;;16.31;69.80;101647.03;5095130;28;20442;-46
2022/07/01 08:38:42;;;;;;;11.93;4.80;;;;;;;16.38;70.31;101641.09;5095397;28;20069;-47
2022/07/01 08:41:08;;;;;;;17.42;4.38;;;;;;;16.53;72.29;101650.03;5094138;28;20077;-47
2022/07/01 08:43:34;;;;;;;14.85;4.60;;;;;;;16.72;69.70;101643.41;5095030;28;20043;-47
2022/07/01 08:46:01;;;;;;;11.80;4.00;;;;;;;16.77;69.08;101642.66;5094834;28;20162;-48
2022/07/01 08:48:27;;;;;;;13.03;4.43;;;;;;;16.83;66.71;101646.19;5094305;28;20028;-48
2022/07/01 08:50:53;;;;;;;13.75;4.53;;;;;;;16.82;66.20;101660.06;5094907;28;20039;-47
2022/07/01 08:53:18;;;;;;;14.75;4.68;;;;;;;16.78;66.85;101662.63;5094814;28;20344;-47
2022/07/01 08:58:28;;;;;;;13.52;4.00;;;;;;;16.79;66.72;101668.69;5095012;28;20095;-47
2022/07/01 09:01:12;;;;;;;10.77;3.70;;;;;;;16.99;70.13;101666.47;5094608;28;20561;-47
2022/07/01 09:03:37;;;;;;;12.15;5.28;;;;;;;17.23;68.57;101681.59;5094852;28;20070;-47
2022/07/01 09:06:17;;;;;;;15.93;5.28;;;;;;;17.27;66.06;101674.69;5094578;28;20024;-48
2022/07/01 09:08:44;;;;;;;11.85;4.75;;;;;;;17.37;65.30;101663.56;5093939;28;20043;-47
2022/07/01 09:11:13;;;;;;;12.25;4.70;;;;;;;17.48;64.55;101660.22;5094382;28;20024;-50
2022/07/01 09:13:40;;;;;;;14.02;5.60;;;;;;;17.51;62.36;101661.16;5093594;28;20036;-48
2022/07/01 09:16:16;;;;;;;10.65;4.30;;;;;;;17.52;61.84;101668.13;5093904;28;20059;-51
2022/07/01 09:19:01;;;;;;;9.45;4.00;;;;;;;17.58;65.09;101669.94;5094545;28;20024;-48
2022/07/01 09:21:31;;;;;;;9.75;4.30;;;;;;;17.66;63.05;101665.69;5094171;28;20383;-48
2022/07/01 09:24:02;;;;;;;15.00;4.68;;;;;;;17.66;59.82;101665.69;5093635;28;20115;-50
2022/07/01 09:26:28;;;;;;;20.70;4.38;;;;;;;17.66;59.51;101665.69;5094365;28;20059;-49
2022/07/01 09:28:55;;;;;;;23.52;4.13;;;;;;;17.64;60.04;101667.41;5094267;28;20052;-50
2022/07/01 09:31:21;;;;;;;8.55;3.72;;;;;;;17.70;60.63;101667.50;5093006;28;20024;-49
2022/07/01 09:34:02;;;;;;;7.15;3.25;;;;;;;17.76;62.16;101659.75;5094038;28;20043;-47
2022/07/01 09:36:28;;;;;;;13.68;4.30;;;;;;;17.80;59.36;101665.00;5093349;28;20040;-47
2022/07/01 09:38:53;;;;;;;8.70;3.65;;;;;;;17.99;60.31;101671.38;5094008;28;20024;-47
2022/07/01 09:41:23;;;;;;;8.80;3.95;;;;;;;18.16;60.54;101672.44;5093976;28;20024;-50
2022/07/01 09:43:48;;;;;;;11.90;3.33;;;;;;;18.25;58.92;101671.66;5093398;28;20020;-47
2022/07/01 09:46:14;;;;;;;12.25;3.40;;;;;;;18.14;57.66;101681.09;5093730;28;20368;-47
2022/07/01 09:48:39;;;;;;;10.50;3.60;;;;;;;18.04;57.96;101673.16;5094031;28;20027;-47
2022/07/01 09:51:06;;;;;;;16.90;4.40;;;;;;;18.32;58.89;101675.22;5093060;28;20440;-47
2022/07/01 09:53:31;;;;;;;13.93;3.95;;;;;;;18.45;56.21;101671.88;5093848;28;20293;-47
2022/07/01 09:55:57;;;;;;;15.38;3.88;;;;;;;18.60;56.91;101678.97;5093848;28;20024;-48
2022/07/01 09:58:22;;;;;;;10.77;3.78;;;;;;;18.71;57.84;101682.56;5092828;28;20036;-48
2022/07/01 10:00:48;;;;;;;10.95;3.20;;;;;;;18.96;57.41;101679.34;5093453;28;20044;-48
2022/07/01 10:03:17;;;;;;;9.68;2.90;;;;;;;19.02;55.24;101677.63;5093561;28;20052;-50
2022/07/01 10:05:48;;;;;;;8.73;2.67;;;;;;;19.10;54.40;101682.06;5092926;28;20024;-50
2022/07/01 10:08:44;;;;;;;13.13;2.80;;;;;;;19.33;57.16;101685.69;5093476;28;20020;-51
2022/07/01 10:11:14;;;;;;;7.72;2.40;;;;;;;19.55;52.81;101693.69;5093343;28;20062;-50
2022/07/01 10:13:41;;;;;;;12.18;2.58;;;;;;;19.97;54.19;101701.75;5092804;28;20472;-47
2022/07/01 10:16:08;;;;;;;14.40;2.75;;;;;;;19.99;49.58;101697.44;5093238;28;20414;-47
2022/07/01 10:18:33;;;;;;;20.38;2.70;;;;;;;20.23;48.87;101700.13;5092597;28;20020;-47
2022/07/01 10:20:59;;;;;;;8.10;2.00;;;;;;;20.47;48.77;101714.13;5093185;28;20058;-50
2022/07/01 10:23:28;;;;;;;7.75;2.08;;;;;;;20.77;49.44;101707.22;5093217;28;20442;-47
2022/07/01 10:26:02;;;;;;;8.80;2.05;;;;;;;21.24;47.56;101715.97;5091946;28;20020;-47
2022/07/01 10:28:46;;;;;;;13.10;2.67;;;;;;;21.72;46.85;101715.91;5093358;28;20020;-47
2022/07/01 10:31:16;;;;;;;9.38;2.15;;;;;;;22.14;45.68;101721.00;5093166;28;20032;-49
2022/07/01 10:33:44;;;;;;;6.35;1.83;;;;;;;22.88;43.26;101722.31;5092404;28;20028;-48
2022/07/01 10:36:25;;;;;;;6.60;1.88;;;;;;;23.27;41.85;101723.78;5092794;28;20050;-47
2022/07/01 10:41:35;;;;;;;6.38;1.60;;;;;;;23.82;41.47;101724.97;5092362;28;20040;-49
2022/07/01 10:44:07;;;;;;;7.72;1.98;;;;;;;23.25;40.69;101727.31;5092736;28;20030;-48
2022/07/01 10:47:03;;;;;;;5.70;1.80;;;;;;;22.67;43.33;101725.13;5092122;28;20063;-48
2022/07/01 10:49:37;;;;;;;7.63;1.85;;;;;;;22.09;43.83;101720.16;5093093;28;20028;-47
2022/07/01 10:52:08;;;;;;;7.38;1.90;;;;;;;21.12;46.18;101729.09;5092790;28;20039;-47
2022/07/01 10:54:36;;;;;;;10.63;2.20;;;;;;;20.96;47.08;101721.22;5092071;28;20154;-47
2022/07/01 10:57:19;;;;;;;8.50;2.38;;;;;;;21.54;46.14;101724.69;5092785;28;20030;-49
2022/07/01 11:00:18;;;;;;;7.90;2.33;;;;;;;21.50;46.71;101715.06;5092686;28;20364;-50
2022/07/01 11:02:43;;;;;;;9.95;2.00;;;;;;;21.27;45.57;101718.59;5078829;28;20078;-50
2022/07/01 11:05:11;;;;;;;7.72;1.90;;;;;;;21.42;47.13;101714.19;5092724;28;20077;-47
2022/07/01 11:07:38;;;;;;;12.55;2.33;;;;;;;21.86;45.47;101713.25;5091818;28;20173;-48
2022/07/01 11:10:07;;;;;;;8.05;2.03;;;;;;;22.42;43.98;101707.78;5092518;28;20368;-48
2022/07/01 11:12:33;;;;;;;9.65;2.20;;;;;;;23.12;43.58;101705.47;5092703;28;20129;-50